Time,TemperatureF,DewpointF,PressureIn,WindDirection,WindDirectionDegrees,WindSpeedMPH,WindSpeedGustMPH,Humidity,HourlyPrecipIn,Conditions,Clouds,dailyrainin,SoftwareType,DateUTC
2013-12-12 00:04:00,33.6,22.5,-100.00,North,-999,0.0,0.0,63,0.00,,,-99.99,FreeWX-Wi 1.02,2013-12-12 05:04:00,
2013-12-12 00:14:00,33.8,22.6,-100.00,North,-999,0.0,0.0,63,0.00,,,-99.99,FreeWX-Wi 1.02,2013-12-12 05:14:00,
2013-12-12 00:24:00,33.8,22.6,-100.00,North,-999,0.0,0.0,63,0.00,,,-99.99,FreeWX-Wi 1.02,2013-12-12 05:24:00,
2013-12-12 00:34:00,33.6,22.5,-100.00,North,-999,0.0,0.0,63,0.00,,,-99.99,FreeWX-Wi 1.02,2013-12-12 05:34:00,
2013-12-12 00:44:00,33.3,22.5,-100.00,North,-999,0.0,0.0,64,0.00,,,-99.99,FreeWX-Wi 1.02,2013-12-12 05:44:00,
2013-12-12 00:54:00,33.3,22.5,-100.00,North,-999,0.0,0.0,64,0.00,,,-99.99,FreeWX-Wi 1.02,2013-12-12 05:54:00,
2013-12-12 01:04:00,33.4,23.0,-100.00,North,-999,0.0,0.0,65,0.00,,,-99.99,FreeWX-Wi 1.02,2013-12-12 06:04:00,
2013-12-12 01:14:00,33.4,23.0,-100.00,North,-999,0.0,0.0,65,0.00,,,-99.99,FreeWX-Wi 1.02,2013-12-12 06:14:00,
2013-12-12 01:24:00,33.1,22.6,-100.00,North,-999,0.0,0.0,65,0.00,,,-99.99,FreeWX-Wi 1.02,2013-12-12 06:24:00,
2013-12-12 01:34:00,32.9,22.5,-100.00,North,-999,0.0,0.0,65,0.00,,,-99.99,FreeWX-Wi 1.02,2013-12-12 06:34:00,
2013-12-12 01:44:00,32.9,22.5,-100.00,North,-999,0.0,0.0,65,0.00,,,-99.99,FreeWX-Wi 1.02,2013-12-12 06:44:00,
2013-12-12 01:54:00,33.1,23.0,-100.00,North,-999,0.0,0.0,66,0.00,,,-99.99,FreeWX-Wi 1.02,2013-12-12 06:54:00,
2013-12-12 02:04:00,33.1,23.0,-100.00,North,-999,0.0,0.0,66,0.00,,,-99.99,FreeWX-Wi 1.02,2013-12-12 07:04:00,
2013-12-12 02:14:00,32.7,22.6,-100.00,North,-999,0.0,0.0,66,0.00,,,-99.99,FreeWX-Wi 1.02,2013-12-12 07:14:00,
2013-12-12 02:24:00,32.7,22.6,-100.00,North,-999,0.0,0.0,66,0.00,,,-99.99,FreeWX-Wi 1.02,2013-12-12 07:24:00,
2013-12-12 02:34:00,32.5,22.5,-100.00,North,-999,0.0,0.0,66,0.00,,,-99.99,FreeWX-Wi 1.02,2013-12-12 07:34:00,
2013-12-12 02:44:00,32.5,22.8,-100.00,North,-999,0.0,0.0,67,0.00,,,-99.99,FreeWX-Wi 1.02,2013-12-12 07:44:00,
2013-12-12 02:54:00,32.0,21.9,-100.00,North,-999,0.0,0.0,66,0.00,,,-99.99,FreeWX-Wi 1.02,2013-12-12 07:54:00,
2013-12-12 03:04:00,31.8,22.1,-100.00,North,-999,0.0,0.0,67,0.00,,,-99.99,FreeWX-Wi 1.02,2013-12-12 08:04:00,
2013-12-12 03:14:00,32.0,22.6,-100.00,North,-999,0.0,0.0,68,0.00,,,-99.99,FreeWX-Wi 1.02,2013-12-12 08:14:00,
2013-12-12 03:24:00,32.2,22.8,-100.00,North,-999,0.0,0.0,68,0.00,,,-99.99,FreeWX-Wi 1.02,2013-12-12 08:24:00,
2013-12-12 03:34:00,32.2,22.8,-100.00,North,-999,0.0,0.0,68,0.00,,,-99.99,FreeWX-Wi 1.02,2013-12-12 08:34:00,
2013-12-12 15:25:00,38.8,12.2,-100.00,North,-999,0.0,0.0,33,0.00,,,-99.99,FreeWX-Wi 1.02,2013-12-12 20:25:00,
2013-12-12 15:35:00,38.7,12.0,-100.00,North,-999,0.0,0.0,33,0.00,,,-99.99,FreeWX-Wi 1.02,2013-12-12 20:35:00,
2013-12-12 15:45:00,38.5,13.3,-100.00,North,-999,0.0,0.0,35,0.00,,,-99.99,FreeWX-Wi 1.02,2013-12-12 20:45:00,
2013-12-12 15:55:00,38.1,13.6,-100.00,North,-999,0.0,0.0,36,0.00,,,-99.99,FreeWX-Wi 1.02,2013-12-12 20:55:00,
2013-12-12 16:05:00,37.9,14.0,-100.00,North,-999,0.0,0.0,37,0.00,,,-99.99,FreeWX-Wi 1.02,2013-12-12 21:05:00,
2013-12-12 16:15:00,37.6,14.4,-100.00,North,-999,0.0,0.0,38,0.00,,,-99.99,FreeWX-Wi 1.02,2013-12-12 21:15:00,
2013-12-12 16:25:00,37.0,14.4,-100.00,North,-999,0.0,0.0,39,0.00,,,-99.99,FreeWX-Wi 1.02,2013-12-12 21:25:00,
2013-12-12 16:35:00,36.7,14.0,-100.00,North,-999,0.0,0.0,39,0.00,,,-99.99,FreeWX-Wi 1.02,2013-12-12 21:35:00,
2013-12-12 16:45:00,36.5,14.5,-100.00,North,-999,0.0,0.0,40,0.00,,,-99.99,FreeWX-Wi 1.02,2013-12-12 21:45:00,
2013-12-12 16:55:00,36.1,14.2,-100.00,North,-999,0.0,0.0,40,0.00,,,-99.99,FreeWX-Wi 1.02,2013-12-12 21:55:00,
2013-12-12 17:05:00,35.8,14.4,-100.00,North,-999,0.0,0.0,41,0.00,,,-99.99,FreeWX-Wi 1.02,2013-12-12 22:05:00,
2013-12-12 17:15:00,35.6,14.7,-100.00,North,-999,0.0,0.0,42,0.00,,,-99.99,FreeWX-Wi 1.02,2013-12-12 22:15:00,
2013-12-12 17:25:00,35.1,14.4,-100.00,North,-999,0.0,0.0,42,0.00,,,-99.99,FreeWX-Wi 1.02,2013-12-12 22:25:00,
2013-12-12 17:36:00,34.5,13.8,-100.00,North,-999,0.0,0.0,42,0.00,,,-99.99,FreeWX-Wi 1.02,2013-12-12 22:36:00,
2013-12-12 17:46:00,34.3,13.6,-100.00,North,-999,0.0,0.0,42,0.00,,,-99.99,FreeWX-Wi 1.02,2013-12-12 22:46:00,
2013-12-12 17:56:00,34.0,13.3,-100.00,North,-999,0.0,0.0,42,0.00,,,-99.99,FreeWX-Wi 1.02,2013-12-12 22:56:00,
2013-12-12 18:06:00,33.6,13.5,-100.00,North,-999,0.0,0.0,43,0.00,,,-99.99,FreeWX-Wi 1.02,2013-12-12 23:06:00,
2013-12-12 18:16:00,33.4,13.8,-100.00,North,-999,0.0,0.0,44,0.00,,,-99.99,FreeWX-Wi 1.02,2013-12-12 23:16:00,
2013-12-12 18:26:00,33.3,13.8,-100.00,North,-999,0.0,0.0,44,0.00,,,-99.99,FreeWX-Wi 1.02,2013-12-12 23:26:00,
2013-12-12 18:36:00,33.1,14.0,-100.00,North,-999,0.0,0.0,45,0.00,,,-99.99,FreeWX-Wi 1.02,2013-12-12 23:36:00,
2013-12-12 18:46:00,32.7,13.8,-100.00,North,-999,0.0,0.0,45,0.00,,,-99.99,FreeWX-Wi 1.02,2013-12-12 23:46:00,
2013-12-12 18:56:00,32.7,13.8,-100.00,North,-999,0.0,0.0,45,0.00,,,-99.99,FreeWX-Wi 1.02,2013-12-12 23:56:00,
2013-12-12 19:06:00,32.4,14.0,-100.00,North,-999,0.0,0.0,46,0.00,,,-99.99,FreeWX-Wi 1.02,2013-12-13 00:06:00,
2013-12-12 19:16:00,32.5,14.0,-100.00,North,-999,0.0,0.0,46,0.00,,,-99.99,FreeWX-Wi 1.02,2013-12-13 00:16:00,
2013-12-12 19:26:00,32.7,14.7,-100.00,North,-999,0.0,0.0,47,0.00,,,-99.99,FreeWX-Wi 1.02,2013-12-13 00:26:00,
2013-12-12 19:36:00,32.7,15.6,-100.00,North,-999,0.0,0.0,49,0.00,,,-99.99,FreeWX-Wi 1.02,2013-12-13 00:36:00,
2013-12-12 19:46:00,32.5,16.0,-100.00,North,-999,0.0,0.0,50,0.00,,,-99.99,FreeWX-Wi 1.02,2013-12-13 00:46:00,
2013-12-12 19:56:00,32.4,15.8,-100.00,North,-999,0.0,0.0,50,0.00,,,-99.99,FreeWX-Wi 1.02,2013-12-13 00:56:00,
2013-12-12 20:06:00,32.2,16.2,-100.00,North,-999,0.0,0.0,51,0.00,,,-99.99,FreeWX-Wi 1.02,2013-12-13 01:06:00,
2013-12-12 20:16:00,32.0,16.0,-100.00,North,-999,0.0,0.0,51,0.00,,,-99.99,FreeWX-Wi 1.02,2013-12-13 01:16:00,
2013-12-12 20:26:00,31.6,15.6,-100.00,North,-999,0.0,0.0,51,0.00,,,-99.99,FreeWX-Wi 1.02,2013-12-13 01:26:00,
2013-12-12 20:36:00,31.3,15.3,-100.00,North,-999,0.0,0.0,51,0.00,,,-99.99,FreeWX-Wi 1.02,2013-12-13 01:36:00,
2013-12-12 20:46:00,31.6,15.6,-100.00,North,-999,0.0,0.0,51,0.00,,,-99.99,FreeWX-Wi 1.02,2013-12-13 01:46:00,
2013-12-12 20:56:00,31.1,15.1,-100.00,North,-999,0.0,0.0,51,0.00,,,-99.99,FreeWX-Wi 1.02,2013-12-13 01:56:00,
2013-12-12 21:06:00,31.1,15.6,-100.00,North,-999,0.0,0.0,52,0.00,,,-99.99,FreeWX-Wi 1.02,2013-12-13 02:06:00,
2013-12-12 21:16:00,31.3,15.8,-100.00,North,-999,0.0,0.0,52,0.00,,,-99.99,FreeWX-Wi 1.02,2013-12-13 02:16:00,
2013-12-12 21:26:00,31.1,15.6,-100.00,North,-999,0.0,0.0,52,0.00,,,-99.99,FreeWX-Wi 1.02,2013-12-13 02:26:00,
2013-12-12 21:36:00,31.1,15.6,-100.00,North,-999,0.0,0.0,52,0.00,,,-99.99,FreeWX-Wi 1.02,2013-12-13 02:36:00,
2013-12-12 21:46:00,30.9,15.4,-100.00,North,-999,0.0,0.0,52,0.00,,,-99.99,FreeWX-Wi 1.02,2013-12-13 02:46:00,
2013-12-12 21:56:00,30.9,15.8,-100.00,North,-999,0.0,0.0,53,0.00,,,-99.99,FreeWX-Wi 1.02,2013-12-13 02:56:00,
2013-12-12 22:06:00,30.6,15.4,-100.00,North,-999,0.0,0.0,53,0.00,,,-99.99,FreeWX-Wi 1.02,2013-12-13 03:06:00,
2013-12-12 22:16:00,30.6,15.4,-100.00,North,-999,0.0,0.0,53,0.00,,,-99.99,FreeWX-Wi 1.02,2013-12-13 03:16:00,
2013-12-12 22:26:00,30.6,15.4,-100.00,North,-999,0.0,0.0,53,0.00,,,-99.99,FreeWX-Wi 1.02,2013-12-13 03:26:00,
2013-12-12 22:36:00,30.2,15.6,-100.00,North,-999,0.0,0.0,54,0.00,,,-99.99,FreeWX-Wi 1.02,2013-12-13 03:36:00,
2013-12-12 22:46:00,30.0,15.4,-100.00,North,-999,0.0,0.0,54,0.00,,,-99.99,FreeWX-Wi 1.02,2013-12-13 03:46:00,
2013-12-12 22:56:00,29.8,15.6,-100.00,North,-999,0.0,0.0,55,0.00,,,-99.99,FreeWX-Wi 1.02,2013-12-13 03:56:00,
2013-12-12 23:06:00,29.7,15.4,-100.00,North,-999,0.0,0.0,55,0.00,,,-99.99,FreeWX-Wi 1.02,2013-12-13 04:06:00,
2013-12-12 23:16:00,29.8,15.6,-100.00,North,-999,0.0,0.0,55,0.00,,,-99.99,FreeWX-Wi 1.02,2013-12-13 04:16:00,
2013-12-12 23:26:00,29.8,15.6,-100.00,North,-999,0.0,0.0,55,0.00,,,-99.99,FreeWX-Wi 1.02,2013-12-13 04:26:00,
2013-12-12 23:36:00,29.7,15.4,-100.00,North,-999,0.0,0.0,55,0.00,,,-99.99,FreeWX-Wi 1.02,2013-12-13 04:36:00,
2013-12-12 23:46:00,29.5,15.3,-100.00,North,-999,0.0,0.0,55,0.00,,,-99.99,FreeWX-Wi 1.02,2013-12-13 04:46:00,
2013-12-12 23:56:00,29.3,15.6,-100.00,North,-999,0.0,0.0,56,0.00,,,-99.99,FreeWX-Wi 1.02,2013-12-13 04:56:00,